Time;durP1;ratioP1;P1;durP2;ratioP2;P2;SDS_P1;SDS_P2;PMS_P1;PMS_P2;Temp;Humidity;BMP_temperature;BMP_pressure;BME280_temperature;BME280_humidity;BME280_pressure;Samples;Min_cycle;Max_cycle;Signal;HPM_P1;HPM_P2
2022/10/05 00:01:31;;;;;;;44.42;16.48;;;;;;;;;;6271405;22;20094;-76
2022/10/05 00:04:05;;;;;;;36.97;15.15;;;;;;;;;;6270379;22;20102;-76
2022/10/05 00:06:39;;;;;;;38.90;16.15;;;;;;;;;;6270996;22;20042;-76
2022/10/05 00:09:15;;;;;;;32.55;15.82;;;;;;;;;;6270724;22;20102;-76
2022/10/05 00:11:49;;;;;;;26.92;14.23;;;;;;;;;;6270221;22;20884;-75
2022/10/05 00:14:20;;;;;;;33.15;15.07;;;;;;;;;;6271880;22;20024;-76
2022/10/05 00:16:48;;;;;;;36.40;15.98;;;;;;;;;;6272631;22;20026;-76
2022/10/05 00:19:33;;;;;;;41.55;18.00;;;;;;;;;;6270679;22;20106;-75
2022/10/05 00:22:09;;;;;;;45.80;17.40;;;;;;;;;;6271856;22;20098;-76
2022/10/05 00:24:43;;;;;;;49.92;19.35;;;;;;;;;;6270786;22;20098;-77
2022/10/05 00:27:18;;;;;;;43.50;18.05;;;;;;;;;;6269536;22;20027;-76
2022/10/05 00:29:57;;;;;;;40.17;18.15;;;;;;;;;;6271589;22;20042;-76
2022/10/05 00:32:24;;;;;;;38.75;16.90;;;;;;;;;;6271994;22;20016;-75
2022/10/05 00:34:58;;;;;;;50.70;18.88;;;;;;;;;;6271350;22;20094;-76
2022/10/05 00:37:25;;;;;;;62.72;19.40;;;;;;;;;;6269180;22;20423;-76
2022/10/05 00:39:52;;;;;;;47.03;18.50;;;;;;;;;;6280684;22;20101;-76
2022/10/05 00:42:44;;;;;;;43.72;17.58;;;;;;;;;;6301186;22;20479;-76
2022/10/05 00:45:27;;;;;;;49.08;18.23;;;;;;;;;;6301636;22;20115;-76
2022/10/05 00:48:03;;;;;;;47.03;17.27;;;;;;;;;;6303657;22;20027;-76
2022/10/05 00:50:30;;;;;;;46.40;19.92;;;;;;;;;;6275199;22;20046;-76
2022/10/05 00:53:23;;;;;;;54.75;20.27;;;;;;;;;;6302635;22;20029;-76
2022/10/05 00:55:50;;;;;;;61.70;21.30;;;;;;;;;;6302056;22;20023;-76
2022/10/05 00:58:24;;;;;;;52.08;18.38;;;;;;;;;;6302440;22;20031;-77
2022/10/05 01:00:58;;;;;;;62.53;19.52;;;;;;;;;;6302085;22;20026;-76
2022/10/05 01:03:38;;;;;;;43.47;17.33;;;;;;;;;;6275968;22;20030;-76
2022/10/05 01:06:06;;;;;;;41.78;18.17;;;;;;;;;;6302069;22;20025;-76
2022/10/05 01:08:58;;;;;;;50.15;18.10;;;;;;;;;;6302541;22;20023;-76
2022/10/05 01:11:36;;;;;;;53.20;17.23;;;;;;;;;;6276556;22;20061;-76
2022/10/05 01:14:09;;;;;;;38.70;16.13;;;;;;;;;;6302078;22;20023;-76
2022/10/05 01:16:50;;;;;;;51.42;15.50;;;;;;;;;;6275335;22;20094;-76
2022/10/05 01:19:36;;;;;;;44.75;17.50;;;;;;;;;;6271689;22;20024;-77
2022/10/05 01:22:10;;;;;;;41.25;15.95;;;;;;;;;;6302350;22;20025;-77
2022/10/05 01:24:42;;;;;;;51.13;17.70;;;;;;;;;;6301784;22;20108;-76
2022/10/05 01:27:28;;;;;;;42.67;17.02;;;;;;;;;;6301397;22;20026;-76
2022/10/05 01:30:00;;;;;;;49.20;16.13;;;;;;;;;;6301827;22;20049;-76
2022/10/05 01:32:39;;;;;;;42.40;15.43;;;;;;;;;;6302279;22;20110;-76
2022/10/05 01:35:09;;;;;;;49.40;14.88;;;;;;;;;;6299220;22;20055;-75
2022/10/05 01:37:55;;;;;;;43.10;16.45;;;;;;;;;;6301793;22;20033;-76
2022/10/05 01:40:47;;;;;;;42.15;14.80;;;;;;;;;;6299309;22;20019;-76
2022/10/05 01:43:20;;;;;;;38.90;15.90;;;;;;;;;;6299967;22;20094;-75
2022/10/05 01:45:56;;;;;;;35.72;14.95;;;;;;;;;;6302018;22;20015;-76
2022/10/05 01:48:50;;;;;;;49.88;15.27;;;;;;;;;;6300295;22;20031;-76
2022/10/05 01:51:17;;;;;;;35.75;13.93;;;;;;;;;;6301461;22;20345;-75
2022/10/05 01:54:08;;;;;;;35.75;12.63;;;;;;;;;;6299050;22;20026;-75
2022/10/05 01:56:35;;;;;;;42.10;14.55;;;;;;;;;;6301277;22;20030;-76
2022/10/05 01:59:32;;;;;;;42.15;13.55;;;;;;;;;;6302060;22;20452;-76
2022/10/05 02:02:08;;;;;;;47.00;14.90;;;;;;;;;;6249586;22;20042;-76
2022/10/05 02:04:43;;;;;;;36.55;13.40;;;;;;;;;;6275251;22;20023;-76
2022/10/05 02:07:57;;;;;;;42.15;14.48;;;;;;;;;;6277958;22;20026;-76
2022/10/05 02:10:32;;;;;;;42.35;13.73;;;;;;;;;;6192669;22;20076;-76
2022/10/05 02:13:15;;;;;;;38.65;13.25;;;;;;;;;;6276621;22;20034;-76
2022/10/05 02:15:49;;;;;;;34.33;12.60;;;;;;;;;;6301347;22;20098;-77
2022/10/05 02:18:26;;;;;;;42.10;14.27;;;;;;;;;;6274814;22;20072;-75
2022/10/05 02:20:55;;;;;;;33.45;10.88;;;;;;;;;;6302446;22;20129;-76
2022/10/05 02:23:32;;;;;;;45.00;13.52;;;;;;;;;;6300233;22;20030;-76
2022/10/05 02:26:00;;;;;;;36.17;12.10;;;;;;;;;;6300661;22;20103;-76
2022/10/05 02:28:46;;;;;;;35.92;13.18;;;;;;;;;;6301474;22;20090;-75
2022/10/05 02:31:17;;;;;;;35.65;12.40;;;;;;;;;;6274273;22;20174;-76
2022/10/05 02:33:52;;;;;;;40.65;12.65;;;;;;;;;;6300117;22;20503;-76
2022/10/05 02:36:28;;;;;;;43.25;12.50;;;;;;;;;;6301198;22;20115;-76
2022/10/05 02:39:20;;;;;;;35.70;12.40;;;;;;;;;;6302522;22;20029;-75
2022/10/05 02:42:01;;;;;;;35.53;11.45;;;;;;;;;;6273245;22;20026;-76
2022/10/05 02:44:46;;;;;;;41.65;14.05;;;;;;;;;;6300453;22;20462;-76
2022/10/05 02:47:22;;;;;;;39.60;13.43;;;;;;;;;;6273362;22;20011;-76
2022/10/05 02:50:00;;;;;;;40.58;12.80;;;;;;;;;;6301192;22;20046;-76
2022/10/05 02:52:42;;;;;;;41.83;12.82;;;;;;;;;;6274175;22;20015;-76
2022/10/05 02:55:32;;;;;;;38.72;11.93;;;;;;;;;;6300282;22;20038;-75
2022/10/05 02:58:11;;;;;;;44.03;14.00;;;;;;;;;;6300905;22;20456;-76
2022/10/05 03:00:48;;;;;;;40.15;12.70;;;;;;;;;;6300379;22;20356;-76
2022/10/05 03:03:29;;;;;;;43.40;14.07;;;;;;;;;;6300812;22;20054;-76
2022/10/05 03:06:05;;;;;;;35.80;13.70;;;;;;;;;;6301800;22;20480;-77
2022/10/05 03:08:38;;;;;;;36.80;11.77;;;;;;;;;;6301672;22;20090;-76
2022/10/05 03:11:12;;;;;;;26.38;10.13;;;;;;;;;;6300906;22;20023;-76
2022/10/05 03:13:49;;;;;;;31.88;10.90;;;;;;;;;;6300083;22;20019;-75
2022/10/05 03:16:34;;;;;;;37.03;11.23;;;;;;;;;;6301751;22;20098;-76
2022/10/05 03:19:21;;;;;;;33.55;10.07;;;;;;;;;;6301086;22;20126;-76
2022/10/05 03:22:01;;;;;;;26.48;8.73;;;;;;;;;;6275790;22;20019;-76
2022/10/05 03:24:51;;;;;;;26.58;9.52;;;;;;;;;;6301934;22;20094;-77
2022/10/05 03:27:36;;;;;;;28.00;10.50;;;;;;;;;;6276690;22;20106;-74
2022/10/05 03:30:09;;;;;;;25.52;10.00;;;;;;;;;;6276670;22;20065;-76
2022/10/05 03:33:01;;;;;;;20.60;8.77;;;;;;;;;;6304208;22;20031;-76
2022/10/05 03:35:54;;;;;;;17.98;8.60;;;;;;;;;;6304189;22;20106;-76
2022/10/05 03:38:37;;;;;;;29.48;9.52;;;;;;;;;;6272871;22;20030;-76
2022/10/05 03:41:12;;;;;;;15.80;6.88;;;;;;;;;;6301673;22;20031;-75
2022/10/05 03:44:05;;;;;;;22.45;8.63;;;;;;;;;;6304458;22;20023;-76
2022/10/05 03:46:55;;;;;;;22.65;8.50;;;;;;;;;;6304358;22;20023;-76
2022/10/05 03:49:29;;;;;;;17.55;7.38;;;;;;;;;;6296701;22;20612;-76
2022/10/05 03:52:23;;;;;;;14.63;8.10;;;;;;;;;;6277202;22;20102;-76
2022/10/05 03:55:02;;;;;;;15.27;6.45;;;;;;;;;;6272216;22;20046;-76
2022/10/05 03:57:32;;;;;;;19.42;7.78;;;;;;;;;;6276504;22;20023;-75
2022/10/05 04:00:27;;;;;;;23.33;8.50;;;;;;;;;;6304062;22;20019;-76
2022/10/05 04:03:10;;;;;;;16.55;6.43;;;;;;;;;;6301910;22;20817;-76
2022/10/05 04:06:06;;;;;;;13.80;6.85;;;;;;;;;;6304207;22;20076;-77
2022/10/05 04:08:34;;;;;;;17.42;7.80;;;;;;;;;;6303608;22;20126;-77
2022/10/05 04:11:20;;;;;;;20.02;7.18;;;;;;;;;;6279134;22;20102;-76
2022/10/05 04:14:11;;;;;;;27.63;9.32;;;;;;;;;;6303335;22;20042;-77
2022/10/05 04:16:46;;;;;;;25.90;9.77;;;;;;;;;;6296189;22;20022;-76
2022/10/05 04:19:20;;;;;;;31.95;10.15;;;;;;;;;;6303253;22;20015;-77
2022/10/05 04:21:57;;;;;;;30.85;9.77;;;;;;;;;;6303458;22;20456;-77
2022/10/05 04:24:31;;;;;;;41.20;11.20;;;;;;;;;;6302400;22;20635;-76
2022/10/05 04:27:14;;;;;;;29.17;9.70;;;;;;;;;;6300327;22;20761;-77
2022/10/05 04:29:47;;;;;;;25.83;8.98;;;;;;;;;;6302328;22;20015;-77
2022/10/05 04:32:40;;;;;;;25.95;8.98;;;;;;;;;;6302089;22;20019;-77
2022/10/05 04:35:15;;;;;;;26.15;9.43;;;;;;;;;;6303873;22;20482;-76
2022/10/05 04:37:57;;;;;;;28.33;8.98;;;;;;;;;;6274772;22;20015;-76
2022/10/05 04:40:37;;;;;;;30.52;7.90;;;;;;;;;;6300423;22;20748;-76
2022/10/05 04:43:25;;;;;;;25.77;7.40;;;;;;;;;;6304388;22;20094;-76
2022/10/05 04:46:28;;;;;;;20.13;7.15;;;;;;;;;;6278903;22;20346;-78
2022/10/05 04:49:13;;;;;;;17.00;5.30;;;;;;;;;;6209533;23;20020;-77
2022/10/05 04:51:41;;;;;;;21.38;6.72;;;;;;;;;;6297462;22;20019;-76
2022/10/05 04:54:17;;;;;;;13.45;6.40;;;;;;;;;;6302085;22;20505;-77
2022/10/05 04:56:47;;;;;;;18.30;6.75;;;;;;;;;;6276768;22;20077;-76
2022/10/05 04:59:31;;;;;;;22.25;7.32;;;;;;;;;;6303094;22;20098;-77
2022/10/05 05:02:18;;;;;;;22.70;6.75;;;;;;;;;;6277363;22;20026;-76
2022/10/05 05:04:55;;;;;;;14.55;5.97;;;;;;;;;;6303256;22;20492;-77
2022/10/05 05:07:38;;;;;;;12.07;5.35;;;;;;;;;;6302019;22;20475;-77
2022/10/05 05:10:25;;;;;;;19.13;6.38;;;;;;;;;;6303063;22;20098;-76
2022/10/05 05:13:23;;;;;;;17.20;5.30;;;;;;;;;;6304463;22;20102;-77
2022/10/05 05:15:50;;;;;;;10.80;5.43;;;;;;;;;;6303034;22;20020;-77
2022/10/05 05:18:39;;;;;;;21.45;6.38;;;;;;;;;;6302830;22;20027;-76
2022/10/05 05:21:17;;;;;;;21.48;6.88;;;;;;;;;;6304231;22;20027;-76
2022/10/05 05:24:09;;;;;;;14.32;5.72;;;;;;;;;;6302454;22;20094;-76
2022/10/05 05:26:55;;;;;;;26.52;8.30;;;;;;;;;;6302973;22;20102;-77
2022/10/05 05:29:37;;;;;;;18.35;7.40;;;;;;;;;;6304067;22;20098;-76
2022/10/05 05:32:12;;;;;;;30.40;8.00;;;;;;;;;;6275608;22;20106;-76
2022/10/05 05:35:04;;;;;;;17.90;6.90;;;;;;;;;;6303758;22;20120;-76
2022/10/05 05:37:44;;;;;;;15.45;6.55;;;;;;;;;;6303681;22;20090;-76
2022/10/05 05:40:29;;;;;;;17.08;6.65;;;;;;;;;;6301727;22;20110;-76
2022/10/05 05:43:03;;;;;;;28.00;8.90;;;;;;;;;;6302713;22;20015;-75
2022/10/05 05:45:57;;;;;;;29.98;9.00;;;;;;;;;;6277052;22;20547;-76
2022/10/05 05:48:33;;;;;;;29.08;8.70;;;;;;;;;;6303214;22;20098;-76
2022/10/05 05:51:18;;;;;;;27.98;8.35;;;;;;;;;;6303233;22;20631;-77
2022/10/05 05:53:47;;;;;;;25.60;8.35;;;;;;;;;;6302875;22;20063;-76
2022/10/05 05:56:29;;;;;;;24.98;8.98;;;;;;;;;;6303033;22;20023;-75
2022/10/05 05:59:04;;;;;;;19.23;7.20;;;;;;;;;;6276761;22;20114;-76
2022/10/05 06:01:38;;;;;;;23.60;8.50;;;;;;;;;;6302153;22;20611;-76
2022/10/05 06:04:13;;;;;;;21.58;6.88;;;;;;;;;;6303548;22;20038;-76
2022/10/05 06:06:52;;;;;;;14.95;6.25;;;;;;;;;;6302527;22;20468;-76
2022/10/05 06:09:26;;;;;;;16.55;6.10;;;;;;;;;;6302725;22;20436;-77
2022/10/05 06:12:06;;;;;;;17.23;6.95;;;;;;;;;;6302306;22;20498;-76
2022/10/05 06:14:41;;;;;;;12.45;5.63;;;;;;;;;;6274903;22;20051;-76
2022/10/05 06:17:23;;;;;;;16.25;6.03;;;;;;;;;;6302263;22;20073;-75
2022/10/05 06:19:53;;;;;;;16.35;5.18;;;;;;;;;;6302540;22;20027;-76
2022/10/05 06:22:37;;;;;;;18.10;5.43;;;;;;;;;;6302758;22;20028;-77
2022/10/05 06:25:07;;;;;;;20.50;7.45;;;;;;;;;;6302883;22;20027;-76
2022/10/05 06:27:59;;;;;;;11.27;4.90;;;;;;;;;;6303056;22;20486;-76
2022/10/05 06:30:31;;;;;;;17.15;7.07;;;;;;;;;;6303012;22;20023;-76
2022/10/05 06:33:14;;;;;;;25.25;7.78;;;;;;;;;;6302646;22;20033;-76
2022/10/05 06:36:15;;;;;;;23.30;8.48;;;;;;;;;;6303865;22;20395;-77
2022/10/05 06:38:57;;;;;;;22.40;8.65;;;;;;;;;;6297436;22;20019;-76
2022/10/05 06:41:44;;;;;;;15.65;8.05;;;;;;;;;;6300612;22;20476;-77
2022/10/05 06:44:25;;;;;;;20.80;7.25;;;;;;;;;;6302997;22;20368;-77
2022/10/05 06:46:59;;;;;;;16.15;7.43;;;;;;;;;;6303700;22;20019;-77
2022/10/05 06:49:26;;;;;;;;;;;;;;;;;;6302851;22;20025;-77
2022/10/05 06:52:15;;;;;;;15.30;5.20;;;;;;;;;;6302713;22;19971;-77
2022/10/05 06:54:48;;;;;;;17.48;6.55;;;;;;;;;;6302859;22;20050;-77
2022/10/05 06:57:43;;;;;;;15.50;6.03;;;;;;;;;;6302211;22;20456;-76
2022/10/05 07:00:10;;;;;;;;;;;;;;;;;;6302648;22;20712;-76
2022/10/05 07:02:51;;;;;;;25.60;7.75;;;;;;;;;;6303589;22;19986;-76
2022/10/05 07:05:36;;;;;;;20.40;5.70;;;;;;;;;;6302503;22;20333;-77
2022/10/05 07:08:19;;;;;;;20.17;6.15;;;;;;;;;;6302458;22;20090;-78
2022/10/05 07:11:02;;;;;;;19.73;5.95;;;;;;;;;;6302529;22;20023;-77
2022/10/05 07:13:48;;;;;;;15.60;6.05;;;;;;;;;;6301709;22;20472;-77
2022/10/05 07:16:37;;;;;;;17.40;5.85;;;;;;;;;;6301492;22;20365;-76
2022/10/05 07:19:04;;;;;;;21.80;7.28;;;;;;;;;;6301302;22;20090;-77
2022/10/05 07:22:16;;;;;;;20.55;6.50;;;;;;;;;;6301298;22;20516;-76
2022/10/05 07:24:56;;;;;;;23.48;7.72;;;;;;;;;;6206397;23;20107;-76
2022/10/05 07:27:37;;;;;;;22.10;7.07;;;;;;;;;;6182474;23;20394;-76
2022/10/05 07:30:04;;;;;;;23.13;6.15;;;;;;;;;;6270069;22;20027;-76
2022/10/05 07:32:45;;;;;;;17.30;5.80;;;;;;;;;;6301762;22;20102;-76
2022/10/05 07:38:21;;;;;;;11.25;4.28;;;;;;;;;;6301182;22;20026;-77
2022/10/05 07:40:52;;;;;;;9.88;4.78;;;;;;;;;;6269149;22;20059;-77
2022/10/05 07:43:36;;;;;;;12.43;3.92;;;;;;;;;;6271061;22;20090;-77
2022/10/05 07:46:47;;;;;;;18.50;4.93;;;;;;;;;;6271524;22;20453;-77
2022/10/05 07:49:43;;;;;;;19.08;4.60;;;;;;;;;;6265758;22;20098;-77
2022/10/05 07:52:12;;;;;;;18.33;5.22;;;;;;;;;;6271037;22;20019;-76
2022/10/05 07:54:58;;;;;;;18.85;5.18;;;;;;;;;;6269925;22;20019;-77
2022/10/05 07:57:31;;;;;;;11.90;4.88;;;;;;;;;;6270246;22;20038;-77
2022/10/05 08:00:10;;;;;;;15.10;5.43;;;;;;;;;;6271891;22;20102;-77
2022/10/05 08:02:43;;;;;;;19.90;6.10;;;;;;;;;;6271047;22;20307;-77
2022/10/05 08:05:23;;;;;;;17.98;6.03;;;;;;;;;;6272098;22;20028;-76
2022/10/05 08:07:53;;;;;;;22.10;6.60;;;;;;;;;;6270325;22;20099;-76
2022/10/05 08:10:35;;;;;;;32.25;8.77;;;;;;;;;;6270996;22;20032;-77
2022/10/05 08:13:22;;;;;;;23.60;7.20;;;;;;;;;;6272398;22;20020;-76
2022/10/05 08:15:58;;;;;;;24.02;7.55;;;;;;;;;;6265053;22;20020;-77
2022/10/05 08:18:25;;;;;;;16.42;6.00;;;;;;;;;;6272005;22;20024;-76
2022/10/05 08:20:59;;;;;;;17.50;4.75;;;;;;;;;;6273032;22;20078;-76
2022/10/05 08:23:26;;;;;;;;;;;;;;;;;;6272825;22;20019;-76
2022/10/05 08:26:12;;;;;;;14.75;4.80;;;;;;;;;;6272725;22;19930;-77
2022/10/05 08:28:49;;;;;;;15.43;4.20;;;;;;;;;;6272967;22;20023;-77
2022/10/05 08:31:25;;;;;;;18.60;4.82;;;;;;;;;;6273019;22;20106;-77
2022/10/05 08:34:11;;;;;;;14.25;4.15;;;;;;;;;;6273011;22;20030;-77
2022/10/05 08:37:00;;;;;;;7.85;3.28;;;;;;;;;;6272214;22;20026;-78
2022/10/05 08:39:29;;;;;;;10.95;4.18;;;;;;;;;;6272016;22;20054;-77
2022/10/05 08:42:10;;;;;;;5.78;3.00;;;;;;;;;;6298887;22;20114;-77
2022/10/05 08:44:58;;;;;;;6.85;3.15;;;;;;;;;;6275726;22;20508;-76
2022/10/05 08:47:44;;;;;;;8.02;3.17;;;;;;;;;;6260162;22;20023;-77
2022/10/05 08:50:38;;;;;;;8.85;3.03;;;;;;;;;;6275933;22;20619;-77
2022/10/05 08:53:12;;;;;;;8.25;2.63;;;;;;;;;;6303834;22;20016;-77
2022/10/05 08:55:39;;;;;;;19.23;4.03;;;;;;;;;;6301680;22;20027;-77
2022/10/05 08:58:36;;;;;;;7.03;2.78;;;;;;;;;;6303354;22;20345;-77
2022/10/05 09:01:03;;;;;;;4.40;2.38;;;;;;;;;;6304367;22;20023;-76
2022/10/05 09:03:52;;;;;;;4.45;2.13;;;;;;;;;;6303573;22;20055;-77
2022/10/05 09:06:38;;;;;;;8.43;2.25;;;;;;;;;;6302002;22;20285;-77
2022/10/05 09:09:18;;;;;;;3.72;2.03;;;;;;;;;;6277240;22;20431;-77
2022/10/05 09:12:08;;;;;;;9.05;2.90;;;;;;;;;;6302559;22;20460;-77
2022/10/05 09:14:54;;;;;;;7.25;2.60;;;;;;;;;;6261319;22;20055;-76
2022/10/05 09:17:41;;;;;;;;;;;;;;;;;;6303015;22;20767;-77
2022/10/05 09:20:38;;;;;;;5.53;2.70;;;;;;;;;;6303183;22;19918;-75
2022/10/05 09:23:17;;;;;;;8.60;3.47;;;;;;;;;;6290414;22;20019;-77
2022/10/05 09:26:30;;;;;;;7.10;3.33;;;;;;;;;;6303759;22;20015;-76
2022/10/05 09:29:11;;;;;;;9.25;2.95;;;;;;;;;;6206748;23;20063;-77
2022/10/05 09:32:23;;;;;;;5.88;2.80;;;;;;;;;;6208150;23;20091;-76
2022/10/05 09:35:00;;;;;;;6.90;3.00;;;;;;;;;;6117289;23;20096;-77
2022/10/05 09:37:34;;;;;;;7.40;2.53;;;;;;;;;;6147962;23;20505;-76
2022/10/05 09:40:21;;;;;;;7.15;2.55;;;;;;;;;;6240658;22;20286;-77
2022/10/05 09:43:04;;;;;;;6.32;2.75;;;;;;;;;;6241533;22;20059;-76
2022/10/05 09:45:49;;;;;;;9.10;2.63;;;;;;;;;;6241469;23;20028;-77
2022/10/05 09:48:42;;;;;;;7.18;2.47;;;;;;;;;;6241633;23;20016;-77
2022/10/05 09:51:44;;;;;;;7.90;2.50;;;;;;;;;;6240894;23;20023;-77
2022/10/05 09:54:20;;;;;;;3.50;2.10;;;;;;;;;;6206849;23;20029;-76
2022/10/05 09:57:06;;;;;;;5.75;2.60;;;;;;;;;;6237481;22;20059;-77
2022/10/05 10:00:00;;;;;;;4.43;1.90;;;;;;;;;;6240305;23;20046;-77
2022/10/05 10:02:33;;;;;;;3.67;1.98;;;;;;;;;;6239438;23;20028;-78
2022/10/05 10:05:13;;;;;;;4.30;1.85;;;;;;;;;;6241232;23;20028;-77
2022/10/05 10:07:49;;;;;;;4.45;1.95;;;;;;;;;;6241172;23;20027;-77
2022/10/05 10:10:39;;;;;;;3.78;1.80;;;;;;;;;;6240332;23;20091;-78
2022/10/05 10:13:21;;;;;;;2.75;1.70;;;;;;;;;;6241760;22;20038;-77
2022/10/05 10:16:14;;;;;;;3.25;1.80;;;;;;;;;;6240133;23;20095;-77
2022/10/05 10:18:44;;;;;;;2.88;1.75;;;;;;;;;;6240433;23;20028;-77
2022/10/05 10:21:45;;;;;;;3.10;1.92;;;;;;;;;;6240742;22;20818;-77
2022/10/05 10:24:18;;;;;;;5.68;2.25;;;;;;;;;;6227917;22;20020;-76
2022/10/05 10:27:12;;;;;;;12.63;2.90;;;;;;;;;;6239956;22;20063;-76
2022/10/05 10:29:42;;;;;;;7.05;3.20;;;;;;;;;;6241747;23;20096;-77
2022/10/05 10:32:27;;;;;;;14.48;4.20;;;;;;;;;;6241254;23;20099;-77
2022/10/05 10:35:27;;;;;;;7.88;3.35;;;;;;;;;;6239492;23;20016;-76
2022/10/05 10:38:21;;;;;;;14.02;4.32;;;;;;;;;;6224215;22;20094;-77
2022/10/05 10:41:11;;;;;;;16.23;5.20;;;;;;;;;;6255129;22;20055;-75
2022/10/05 10:43:58;;;;;;;15.07;5.22;;;;;;;;;;6302301;22;20066;-76
2022/10/05 10:46:44;;;;;;;20.35;5.50;;;;;;;;;;6302274;22;20019;-77
2022/10/05 10:49:28;;;;;;;24.02;5.72;;;;;;;;;;6300956;22;20019;-76
2022/10/05 10:52:11;;;;;;;16.20;5.63;;;;;;;;;;6301977;22;20543;-75
2022/10/05 10:55:04;;;;;;;16.15;5.53;;;;;;;;;;6301302;22;20021;-76
2022/10/05 10:57:37;;;;;;;21.58;5.07;;;;;;;;;;6274721;22;20579;-75
2022/10/05 11:00:29;;;;;;;36.05;7.40;;;;;;;;;;6301632;22;20071;-74
2022/10/05 11:03:07;;;;;;;23.15;6.28;;;;;;;;;;6301357;22;20567;-76
2022/10/05 11:06:06;;;;;;;25.92;6.30;;;;;;;;;;6276655;22;20270;-76
2022/10/05 11:08:52;;;;;;;21.73;7.18;;;;;;;;;;6291365;22;20098;-75
2022/10/05 11:11:29;;;;;;;24.80;7.10;;;;;;;;;;6301509;22;20514;-76
2022/10/05 11:14:20;;;;;;;21.77;6.85;;;;;;;;;;6301953;22;20094;-75
2022/10/05 11:16:57;;;;;;;23.23;7.15;;;;;;;;;;6301724;22;20098;-75
2022/10/05 11:19:24;;;;;;;34.25;7.95;;;;;;;;;;6302360;22;20030;-75
2022/10/05 11:22:23;;;;;;;31.48;8.10;;;;;;;;;;6302244;22;20020;-76
2022/10/05 11:25:20;;;;;;;26.60;8.57;;;;;;;;;;6302276;22;20030;-77
2022/10/05 11:28:01;;;;;;;32.03;9.55;;;;;;;;;;6275609;22;20099;-76
2022/10/05 11:30:50;;;;;;;30.08;9.20;;;;;;;;;;6277351;22;20019;-75
2022/10/05 11:33:43;;;;;;;37.95;10.30;;;;;;;;;;6302132;22;20029;-74
2022/10/05 11:36:29;;;;;;;32.53;9.65;;;;;;;;;;6275663;22;20103;-76
2022/10/05 11:39:18;;;;;;;31.58;8.73;;;;;;;;;;6301469;22;20025;-75
2022/10/05 11:41:58;;;;;;;31.83;9.68;;;;;;;;;;6299520;22;20110;-75
2022/10/05 11:44:45;;;;;;;34.10;10.27;;;;;;;;;;6302037;22;20098;-75
2022/10/05 11:47:25;;;;;;;34.75;9.15;;;;;;;;;;6302781;22;20015;-76
2022/10/05 11:50:05;;;;;;;19.70;7.60;;;;;;;;;;6304566;22;20026;-75
2022/10/05 11:52:43;;;;;;;28.27;8.27;;;;;;;;;;6303342;22;20096;-76
2022/10/05 11:55:21;;;;;;;27.65;6.80;;;;;;;;;;6303298;22;20487;-76
2022/10/05 11:57:55;;;;;;;;;;;;;;;;;;6278934;22;20061;-75
2022/10/05 12:00:24;;;;;;;32.83;7.78;;;;;;;;;;6304004;22;20339;-76
2022/10/05 12:03:10;;;;;;;25.42;8.20;;;;;;;;;;6302653;22;20066;-75
2022/10/05 12:05:46;;;;;;;24.05;6.35;;;;;;;;;;6304122;22;20561;-76
2022/10/05 12:08:23;;;;;;;22.70;7.35;;;;;;;;;;6303828;22;20027;-76
2022/10/05 12:11:04;;;;;;;23.05;8.00;;;;;;;;;;6303597;22;20030;-76
2022/10/05 12:13:39;;;;;;;;;;;;;;;;;;6304429;22;20158;-75
2022/10/05 12:16:16;;;;;;;22.40;6.50;;;;;;;;;;6302849;22;19997;-76
2022/10/05 12:18:51;;;;;;;29.80;8.18;;;;;;;;;;6304198;22;20019;-76
2022/10/05 12:21:29;;;;;;;22.73;6.35;;;;;;;;;;6304205;22;20023;-76
2022/10/05 12:24:14;;;;;;;21.33;7.18;;;;;;;;;;6278979;22;20022;-76
2022/10/05 12:26:51;;;;;;;20.88;7.53;;;;;;;;;;6304400;22;20029;-76
2022/10/05 12:29:46;;;;;;;28.45;7.22;;;;;;;;;;6303313;22;20062;-75
2022/10/05 12:32:37;;;;;;;24.35;6.65;;;;;;;;;;6244541;22;20015;-76
2022/10/05 12:35:23;;;;;;;22.90;5.75;;;;;;;;;;6264657;22;20694;-76
2022/10/05 12:38:27;;;;;;;23.40;5.63;;;;;;;;;;6281882;22;20027;-76
2022/10/05 12:41:24;;;;;;;25.30;6.55;;;;;;;;;;6301763;22;20027;-75
2022/10/05 12:44:17;;;;;;;21.42;6.78;;;;;;;;;;6303995;22;20502;-76
2022/10/05 12:47:12;;;;;;;26.80;7.20;;;;;;;;;;6304897;22;20395;-76
2022/10/05 12:49:57;;;;;;;26.10;8.20;;;;;;;;;;6303729;22;20031;-76
2022/10/05 12:52:42;;;;;;;24.40;7.38;;;;;;;;;;6303405;22;20042;-76
2022/10/05 12:55:09;;;;;;;23.13;6.43;;;;;;;;;;6302582;22;20023;-75
2022/10/05 12:57:46;;;;;;;20.25;8.45;;;;;;;;;;6303113;22;20158;-76
2022/10/05 13:00:18;;;;;;;26.15;6.95;;;;;;;;;;6274776;22;20095;-75
2022/10/05 13:03:01;;;;;;;21.80;7.20;;;;;;;;;;6277803;22;20097;-76
2022/10/05 13:05:49;;;;;;;35.15;8.82;;;;;;;;;;6303751;22;20025;-75
2022/10/05 13:08:39;;;;;;;34.63;7.85;;;;;;;;;;6303468;22;20088;-76
2022/10/05 13:11:16;;;;;;;25.95;6.05;;;;;;;;;;6303293;22;20472;-76
2022/10/05 13:13:50;;;;;;;22.40;6.60;;;;;;;;;;6303339;22;20019;-75
2022/10/05 13:16:20;;;;;;;25.83;6.50;;;;;;;;;;6303356;22;20090;-75
2022/10/05 13:19:15;;;;;;;35.33;8.70;;;;;;;;;;6303156;22;20019;-75
2022/10/05 13:21:48;;;;;;;29.52;8.68;;;;;;;;;;6302605;22;20403;-75
2022/10/05 13:24:23;;;;;;;29.45;6.80;;;;;;;;;;6302155;22;20524;-76
2022/10/05 13:26:53;;;;;;;30.33;6.55;;;;;;;;;;6276540;22;20109;-76
2022/10/05 13:29:26;;;;;;;33.03;8.65;;;;;;;;;;6303462;22;20019;-75
2022/10/05 13:32:03;;;;;;;36.58;7.82;;;;;;;;;;6303490;22;20106;-76
2022/10/05 13:34:33;;;;;;;18.92;6.82;;;;;;;;;;6303118;22;20098;-75
2022/10/05 13:37:26;;;;;;;33.88;7.28;;;;;;;;;;6277604;22;20372;-76
2022/10/05 13:39:59;;;;;;;27.25;6.80;;;;;;;;;;6303521;22;20047;-75
2022/10/05 13:42:47;;;;;;;28.10;7.40;;;;;;;;;;6301414;22;20303;-76
2022/10/05 13:45:17;;;;;;;26.20;7.57;;;;;;;;;;6276184;22;20024;-76
2022/10/05 13:47:54;;;;;;;20.73;6.20;;;;;;;;;;6302231;22;20089;-75
2022/10/05 13:50:28;;;;;;;25.80;6.82;;;;;;;;;;6302446;22;20521;-75
2022/10/05 13:53:07;;;;;;;29.27;6.53;;;;;;;;;;6303818;22;20019;-75
2022/10/05 13:56:12;;;;;;;23.60;6.57;;;;;;;;;;6302999;22;20097;-76
2022/10/05 13:58:50;;;;;;;22.08;5.95;;;;;;;;;;6207689;23;20028;-75
2022/10/05 14:01:35;;;;;;;20.35;6.07;;;;;;;;;;6207927;23;20127;-76
2022/10/05 14:04:23;;;;;;;20.58;5.95;;;;;;;;;;6275887;22;20030;-75
2022/10/05 14:06:51;;;;;;;25.48;5.90;;;;;;;;;;6274527;22;20050;-75
2022/10/05 14:09:30;;;;;;;18.27;5.05;;;;;;;;;;6301988;22;20023;-75
2022/10/05 14:12:03;;;;;;;25.58;6.20;;;;;;;;;;6275337;22;20019;-76
2022/10/05 14:14:45;;;;;;;26.52;5.78;;;;;;;;;;6302080;22;20019;-76
2022/10/05 14:17:14;;;;;;;21.50;5.60;;;;;;;;;;6274465;22;20077;-75
2022/10/05 14:19:49;;;;;;;28.35;6.82;;;;;;;;;;6302873;22;20042;-75
2022/10/05 14:22:21;;;;;;;21.38;5.28;;;;;;;;;;6301256;22;20023;-75
2022/10/05 14:25:07;;;;;;;18.73;4.20;;;;;;;;;;6301788;22;20094;-76
2022/10/05 14:27:35;;;;;;;15.43;5.53;;;;;;;;;;6275839;22;20098;-75
2022/10/05 14:30:09;;;;;;;18.00;5.05;;;;;;;;;;6302485;22;20019;-75
2022/10/05 14:32:47;;;;;;;12.85;4.03;;;;;;;;;;6302619;22;20071;-75
2022/10/05 14:35:24;;;;;;;23.17;5.55;;;;;;;;;;6303105;22;20100;-76
2022/10/05 14:37:55;;;;;;;12.38;4.68;;;;;;;;;;6302664;22;20037;-76
2022/10/05 14:40:43;;;;;;;14.38;4.22;;;;;;;;;;6301829;22;20046;-73
2022/10/05 14:43:18;;;;;;;11.45;3.53;;;;;;;;;;6302024;22;20050;-75
2022/10/05 14:46:12;;;;;;;14.30;3.88;;;;;;;;;;6302222;22;20102;-76
2022/10/05 14:48:43;;;;;;;16.30;4.72;;;;;;;;;;6302910;22;20105;-76
2022/10/05 14:51:30;;;;;;;20.42;5.53;;;;;;;;;;6302456;22;20615;-76
2022/10/05 14:54:01;;;;;;;15.88;4.78;;;;;;;;;;6302752;22;20023;-75
2022/10/05 14:56:47;;;;;;;18.30;4.80;;;;;;;;;;6302534;22;20098;-76
2022/10/05 14:59:24;;;;;;;14.85;4.55;;;;;;;;;;6302706;22;20109;-76
2022/10/05 15:02:11;;;;;;;14.15;4.70;;;;;;;;;;6276124;22;20552;-76
2022/10/05 15:04:49;;;;;;;15.07;4.82;;;;;;;;;;6302485;22;20102;-76
2022/10/05 15:07:28;;;;;;;18.33;5.78;;;;;;;;;;6302480;22;20097;-75
2022/10/05 15:10:14;;;;;;;11.40;3.90;;;;;;;;;;6275503;22;20107;-76
2022/10/05 15:12:48;;;;;;;15.63;5.07;;;;;;;;;;6302250;22;20348;-76
2022/10/05 15:15:28;;;;;;;17.30;4.88;;;;;;;;;;6300738;22;20041;-76
2022/10/05 15:18:05;;;;;;;12.55;4.70;;;;;;;;;;6302407;22;20094;-75
2022/10/05 15:20:45;;;;;;;11.32;3.63;;;;;;;;;;6300861;22;20555;-75
2022/10/05 15:23:23;;;;;;;15.52;5.28;;;;;;;;;;6301130;22;20599;-76
2022/10/05 15:25:53;;;;;;;17.70;5.35;;;;;;;;;;6302615;22;20034;-76
2022/10/05 15:28:31;;;;;;;11.18;5.18;;;;;;;;;;6300516;22;20726;-76
2022/10/05 15:31:03;;;;;;;22.83;5.60;;;;;;;;;;6301811;22;20234;-76
2022/10/05 15:33:45;;;;;;;22.42;5.95;;;;;;;;;;6274983;22;20046;-75
2022/10/05 15:36:21;;;;;;;16.40;5.95;;;;;;;;;;6301597;22;20027;-76
2022/10/05 15:39:02;;;;;;;26.33;7.18;;;;;;;;;;6276336;22;20016;-76
2022/10/05 15:41:49;;;;;;;21.75;6.10;;;;;;;;;;6299890;22;20495;-76
2022/10/05 15:44:39;;;;;;;20.40;6.80;;;;;;;;;;6301184;22;20506;-76
2022/10/05 15:47:09;;;;;;;16.02;5.20;;;;;;;;;;6302256;22;20098;-76
2022/10/05 15:50:01;;;;;;;21.20;6.70;;;;;;;;;;6301836;22;20110;-75
2022/10/05 15:52:31;;;;;;;17.27;5.47;;;;;;;;;;6301553;22;20098;-76
2022/10/05 15:55:24;;;;;;;17.38;6.00;;;;;;;;;;6301745;22;20023;-76